sensor_id;sensor_type;location;lat;lon;timestamp;pressure;altitude;pressure_sealevel;temperature
70668;BMP280;58242;51.250;-1.118;2023-12-28T00:01:10;99066.91;;;15.52
70668;BMP280;58242;51.250;-1.118;2023-12-28T00:03:35;99061.84;;;15.43
70668;BMP280;58242;51.250;-1.118;2023-12-28T00:06:00;99057.94;;;15.34
70668;BMP280;58242;51.250;-1.118;2023-12-28T00:08:26;99074.84;;;15.28
70668;BMP280;58242;51.250;-1.118;2023-12-28T00:10:51;99100.19;;;15.23
70668;BMP280;58242;51.250;-1.118;2023-12-28T00:13:17;99097.88;;;15.19
70668;BMP280;58242;51.250;-1.118;2023-12-28T00:15:42;99074.78;;;15.14
70668;BMP280;58242;51.250;-1.118;2023-12-28T00:18:07;99097.03;;;15.11
70668;BMP280;58242;51.250;-1.118;2023-12-28T00:20:33;99092.38;;;15.05
70668;BMP280;58242;51.250;-1.118;2023-12-28T00:22:58;99088.16;;;15.04
70668;BMP280;58242;51.250;-1.118;2023-12-28T00:25:24;99090.84;;;15.04
70668;BMP280;58242;51.250;-1.118;2023-12-28T00:27:49;99081.59;;;15.02
70668;BMP280;58242;51.250;-1.118;2023-12-28T00:30:15;99092.34;;;14.98
70668;BMP280;58242;51.250;-1.118;2023-12-28T00:32:42;99090.00;;;14.97
70668;BMP280;58242;51.250;-1.118;2023-12-28T00:35:09;99099.63;;;14.94
70668;BMP280;58242;51.250;-1.118;2023-12-28T00:37:35;99100.75;;;14.93
70668;BMP280;58242;51.250;-1.118;2023-12-28T00:40:00;99096.53;;;14.92
70668;BMP280;58242;51.250;-1.118;2023-12-28T00:42:26;99089.63;;;14.91
70668;BMP280;58242;51.250;-1.118;2023-12-28T00:44:51;99086.91;;;14.91
70668;BMP280;58242;51.250;-1.118;2023-12-28T00:47:17;99083.09;;;14.92
70668;BMP280;58242;51.250;-1.118;2023-12-28T00:49:43;99071.94;;;14.94
70668;BMP280;58242;51.250;-1.118;2023-12-28T00:52:08;99070.41;;;14.96
70668;BMP280;58242;51.250;-1.118;2023-12-28T00:54:35;99068.13;;;14.98
70668;BMP280;58242;51.250;-1.118;2023-12-28T00:57:01;99070.03;;;14.98
70668;BMP280;58242;51.250;-1.118;2023-12-28T00:59:27;99065.81;;;14.97
70668;BMP280;58242;51.250;-1.118;2023-12-28T01:01:52;99061.59;;;14.99
70668;BMP280;58242;51.250;-1.118;2023-12-28T01:04:17;99065.47;;;15.02
70668;BMP280;58242;51.250;-1.118;2023-12-28T01:06:43;99062.41;;;15.03
70668;BMP280;58242;51.250;-1.118;2023-12-28T01:09:09;99079.72;;;15.06
70668;BMP280;58242;51.250;-1.118;2023-12-28T01:11:34;99081.63;;;15.08
70668;BMP280;58242;51.250;-1.118;2023-12-28T01:14:00;99070.88;;;15.08
70668;BMP280;58242;51.250;-1.118;2023-12-28T01:16:25;99076.66;;;15.10
70668;BMP280;58242;51.250;-1.118;2023-12-28T01:18:50;99085.53;;;15.11
70668;BMP280;58242;51.250;-1.118;2023-12-28T01:21:16;99071.28;;;15.10
70668;BMP280;58242;51.250;-1.118;2023-12-28T01:23:41;99066.69;;;15.11
70668;BMP280;58242;51.250;-1.118;2023-12-28T01:26:12;99070.13;;;15.11
70668;BMP280;58242;51.250;-1.118;2023-12-28T01:28:39;99077.06;;;15.12
70668;BMP280;58242;51.250;-1.118;2023-12-28T01:31:04;99086.28;;;15.11
70668;BMP280;58242;51.250;-1.118;2023-12-28T01:33:29;99113.19;;;15.11
70668;BMP280;58242;51.250;-1.118;2023-12-28T01:35:55;99063.22;;;15.10
70668;BMP280;58242;51.250;-1.118;2023-12-28T01:38:20;99114.34;;;15.07
70668;BMP280;58242;51.250;-1.118;2023-12-28T01:40:45;99127.00;;;15.06
70668;BMP280;58242;51.250;-1.118;2023-12-28T01:43:11;99125.81;;;15.04
70668;BMP280;58242;51.250;-1.118;2023-12-28T01:45:36;99121.19;;;15.01
70668;BMP280;58242;51.250;-1.118;2023-12-28T01:48:02;99106.56;;;14.99
70668;BMP280;58242;51.250;-1.118;2023-12-28T01:50:30;99109.59;;;14.94
70668;BMP280;58242;51.250;-1.118;2023-12-28T01:52:58;99126.06;;;14.89
70668;BMP280;58242;51.250;-1.118;2023-12-28T01:55:26;99139.13;;;14.87
70668;BMP280;58242;51.250;-1.118;2023-12-28T01:57:52;99109.53;;;14.87
70668;BMP280;58242;51.250;-1.118;2023-12-28T02:00:21;99107.22;;;14.89
70668;BMP280;58242;51.250;-1.118;2023-12-28T02:02:47;99126.50;;;14.91
70668;BMP280;58242;51.250;-1.118;2023-12-28T02:05:13;99123.81;;;14.91
70668;BMP280;58242;51.250;-1.118;2023-12-28T02:07:38;99148.41;;;14.93
70668;BMP280;58242;51.250;-1.118;2023-12-28T02:10:04;99133.81;;;14.94
70668;BMP280;58242;51.250;-1.118;2023-12-28T02:12:29;99127.31;;;14.95
70668;BMP280;58242;51.250;-1.118;2023-12-28T02:14:55;99123.84;;;14.94
70668;BMP280;58242;51.250;-1.118;2023-12-28T02:19:56;99123.84;;;14.98
70668;BMP280;58242;51.250;-1.118;2023-12-28T02:22:27;99126.56;;;14.98
70668;BMP280;58242;51.250;-1.118;2023-12-28T02:27:24;99137.34;;;15.01
70668;BMP280;58242;51.250;-1.118;2023-12-28T02:29:50;99128.91;;;15.03
70668;BMP280;58242;51.250;-1.118;2023-12-28T02:32:16;99134.31;;;15.06
70668;BMP280;58242;51.250;-1.118;2023-12-28T02:34:47;99135.88;;;15.10
70668;BMP280;58242;51.250;-1.118;2023-12-28T02:37:16;99127.81;;;15.10
70668;BMP280;58242;51.250;-1.118;2023-12-28T02:39:42;99146.66;;;15.10
70668;BMP280;58242;51.250;-1.118;2023-12-28T02:42:08;99157.81;;;15.12
70668;BMP280;58242;51.250;-1.118;2023-12-28T02:44:33;99147.03;;;15.12
70668;BMP280;58242;51.250;-1.118;2023-12-28T02:46:59;99138.56;;;15.10
70668;BMP280;58242;51.250;-1.118;2023-12-28T02:49:24;99138.94;;;15.09
70668;BMP280;58242;51.250;-1.118;2023-12-28T02:51:49;99134.66;;;15.05
70668;BMP280;58242;51.250;-1.118;2023-12-28T02:54:15;99133.16;;;15.04
70668;BMP280;58242;51.250;-1.118;2023-12-28T02:56:40;99130.78;;;14.99
70668;BMP280;58242;51.250;-1.118;2023-12-28T02:59:06;99124.63;;;14.95
70668;BMP280;58242;51.250;-1.118;2023-12-28T03:01:31;99127.63;;;14.90
70668;BMP280;58242;51.250;-1.118;2023-12-28T03:03:57;99157.97;;;14.87
70668;BMP280;58242;51.250;-1.118;2023-12-28T03:06:22;99151.03;;;14.86
70668;BMP280;58242;51.250;-1.118;2023-12-28T03:08:47;99137.97;;;14.85
70668;BMP280;58242;51.250;-1.118;2023-12-28T03:11:14;99137.91;;;14.81
70668;BMP280;58242;51.250;-1.118;2023-12-28T03:13:39;99135.22;;;14.81
70668;BMP280;58242;51.250;-1.118;2023-12-28T03:16:05;99140.56;;;14.78
70668;BMP280;58242;51.250;-1.118;2023-12-28T03:18:30;99124.44;;;14.78
70668;BMP280;58242;51.250;-1.118;2023-12-28T03:20:56;99140.97;;;14.76
70668;BMP280;58242;51.250;-1.118;2023-12-28T03:23:21;99136.34;;;14.77
70668;BMP280;58242;51.250;-1.118;2023-12-28T03:25:46;99148.28;;;14.79
70668;BMP280;58242;51.250;-1.118;2023-12-28T03:28:12;99142.91;;;14.79
70668;BMP280;58242;51.250;-1.118;2023-12-28T03:30:37;99160.59;;;14.80
70668;BMP280;58242;51.250;-1.118;2023-12-28T03:33:02;99168.66;;;14.80
70668;BMP280;58242;51.250;-1.118;2023-12-28T03:35:28;99158.28;;;14.82
70668;BMP280;58242;51.250;-1.118;2023-12-28T03:37:53;99148.72;;;14.85
70668;BMP280;58242;51.250;-1.118;2023-12-28T03:40:19;99160.66;;;14.87
70668;BMP280;58242;51.250;-1.118;2023-12-28T03:42:45;99160.28;;;14.88
70668;BMP280;58242;51.250;-1.118;2023-12-28T03:45:10;99164.16;;;14.91
70668;BMP280;58242;51.250;-1.118;2023-12-28T03:47:37;99164.56;;;14.93
70668;BMP280;58242;51.250;-1.118;2023-12-28T03:50:02;99167.28;;;14.96
70668;BMP280;58242;51.250;-1.118;2023-12-28T03:52:28;99164.66;;;15.00
70668;BMP280;58242;51.250;-1.118;2023-12-28T03:54:56;99161.59;;;15.05
70668;BMP280;58242;51.250;-1.118;2023-12-28T03:57:21;99172.38;;;15.08
70668;BMP280;58242;51.250;-1.118;2023-12-28T03:59:46;99170.88;;;15.10
70668;BMP280;58242;51.250;-1.118;2023-12-28T04:02:13;99173.19;;;15.12
70668;BMP280;58242;51.250;-1.118;2023-12-28T04:04:38;99166.28;;;15.14
70668;BMP280;58242;51.250;-1.118;2023-12-28T04:07:04;99170.50;;;15.15
70668;BMP280;58242;51.250;-1.118;2023-12-28T04:09:32;99164.00;;;15.16
70668;BMP280;58242;51.250;-1.118;2023-12-28T04:11:58;99187.09;;;15.21
70668;BMP280;58242;51.250;-1.118;2023-12-28T04:14:23;99176.34;;;15.21
70668;BMP280;58242;51.250;-1.118;2023-12-28T04:16:48;99193.25;;;15.21
70668;BMP280;58242;51.250;-1.118;2023-12-28T04:19:14;99182.13;;;15.23
70668;BMP280;58242;51.250;-1.118;2023-12-28T04:21:42;99178.66;;;15.22
70668;BMP280;58242;51.250;-1.118;2023-12-28T04:24:08;99184.78;;;15.19
70668;BMP280;58242;51.250;-1.118;2023-12-28T04:26:34;99185.53;;;15.20
70668;BMP280;58242;51.250;-1.118;2023-12-28T04:28:59;99192.91;;;15.23
70668;BMP280;58242;51.250;-1.118;2023-12-28T04:31:24;99174.81;;;15.26
70668;BMP280;58242;51.250;-1.118;2023-12-28T04:33:50;99181.75;;;15.27
70668;BMP280;58242;51.250;-1.118;2023-12-28T04:36:15;99184.09;;;15.29
70668;BMP280;58242;51.250;-1.118;2023-12-28T04:38:41;99187.53;;;15.26
70668;BMP280;58242;51.250;-1.118;2023-12-28T04:41:06;99188.69;;;15.25
70668;BMP280;58242;51.250;-1.118;2023-12-28T04:43:32;99192.91;;;15.23
70668;BMP280;58242;51.250;-1.118;2023-12-28T04:46:02;99206.72;;;15.21
70668;BMP280;58242;51.250;-1.118;2023-12-28T04:48:27;99198.63;;;15.18
70668;BMP280;58242;51.250;-1.118;2023-12-28T04:50:53;99200.13;;;15.15
70668;BMP280;58242;51.250;-1.118;2023-12-28T04:53:18;99199.31;;;15.11
70668;BMP280;58242;51.250;-1.118;2023-12-28T04:55:43;99187.38;;;15.06
70668;BMP280;58242;51.250;-1.118;2023-12-28T04:58:10;99188.09;;;15.03
70668;BMP280;58242;51.250;-1.118;2023-12-28T05:00:37;99197.31;;;15.02
70668;BMP280;58242;51.250;-1.118;2023-12-28T05:03:02;99197.69;;;15.00
70668;BMP280;58242;51.250;-1.118;2023-12-28T05:05:27;99200.00;;;14.98
70668;BMP280;58242;51.250;-1.118;2023-12-28T05:07:53;99181.94;;;14.99
70668;BMP280;58242;51.250;-1.118;2023-12-28T05:10:18;99173.47;;;15.00
70668;BMP280;58242;51.250;-1.118;2023-12-28T05:12:43;99171.19;;;15.02
70668;BMP280;58242;51.250;-1.118;2023-12-28T05:15:09;99193.53;;;15.06
70668;BMP280;58242;51.250;-1.118;2023-12-28T05:17:35;99185.47;;;15.09
70668;BMP280;58242;51.250;-1.118;2023-12-28T05:20:00;99194.31;;;15.10
70668;BMP280;58242;51.250;-1.118;2023-12-28T05:22:25;99187.81;;;15.11
70668;BMP280;58242;51.250;-1.118;2023-12-28T05:24:51;99199.31;;;15.11
70668;BMP280;58242;51.250;-1.118;2023-12-28T05:27:16;99202.00;;;15.11
70668;BMP280;58242;51.250;-1.118;2023-12-28T05:29:41;99191.25;;;15.11
70668;BMP280;58242;51.250;-1.118;2023-12-28T05:32:07;99203.94;;;15.11
70668;BMP280;58242;51.250;-1.118;2023-12-28T05:34:32;99203.19;;;15.10
70668;BMP280;58242;51.250;-1.118;2023-12-28T05:36:57;99200.06;;;15.08
70668;BMP280;58242;51.250;-1.118;2023-12-28T05:39:23;99213.13;;;15.06
70668;BMP280;58242;51.250;-1.118;2023-12-28T05:41:48;99201.94;;;15.05
70668;BMP280;58242;51.250;-1.118;2023-12-28T05:44:16;99207.72;;;15.03
70668;BMP280;58242;51.250;-1.118;2023-12-28T05:46:41;99225.38;;;15.01
70668;BMP280;58242;51.250;-1.118;2023-12-28T05:49:06;99221.91;;;15.00
70668;BMP280;58242;51.250;-1.118;2023-12-28T05:51:38;99224.59;;;15.00
70668;BMP280;58242;51.250;-1.118;2023-12-28T05:54:05;99242.28;;;14.98
70668;BMP280;58242;51.250;-1.118;2023-12-28T05:56:30;99219.19;;;14.97
70668;BMP280;58242;51.250;-1.118;2023-12-28T05:58:56;99234.94;;;14.95
70668;BMP280;58242;51.250;-1.118;2023-12-28T06:01:21;99236.06;;;14.94
70668;BMP280;58242;51.250;-1.118;2023-12-28T06:03:46;99227.63;;;14.92
70668;BMP280;58242;51.250;-1.118;2023-12-28T06:06:14;99233.00;;;14.92
70668;BMP280;58242;51.250;-1.118;2023-12-28T06:08:39;99231.09;;;14.92
70668;BMP280;58242;51.250;-1.118;2023-12-28T06:11:05;99234.53;;;14.93
70668;BMP280;58242;51.250;-1.118;2023-12-28T06:13:30;99236.47;;;14.92
70668;BMP280;58242;51.250;-1.118;2023-12-28T06:15:55;99253.34;;;14.93
70668;BMP280;58242;51.250;-1.118;2023-12-28T06:18:21;99263.75;;;14.94
70668;BMP280;58242;51.250;-1.118;2023-12-28T06:20:47;99260.72;;;14.96
70668;BMP280;58242;51.250;-1.118;2023-12-28T06:23:12;99267.63;;;14.97
70668;BMP280;58242;51.250;-1.118;2023-12-28T06:25:37;99251.50;;;15.00
70668;BMP280;58242;51.250;-1.118;2023-12-28T06:28:03;99255.75;;;15.01
70668;BMP280;58242;51.250;-1.118;2023-12-28T06:30:28;99254.66;;;15.06
70668;BMP280;58242;51.250;-1.118;2023-12-28T06:32:54;99264.66;;;15.08
70668;BMP280;58242;51.250;-1.118;2023-12-28T06:35:20;99274.69;;;15.11
70668;BMP280;58242;51.250;-1.118;2023-12-28T06:37:45;99266.59;;;15.11
70668;BMP280;58242;51.250;-1.118;2023-12-28T06:40:11;99260.09;;;15.12
70668;BMP280;58242;51.250;-1.118;2023-12-28T06:42:36;99263.59;;;15.16
70668;BMP280;58242;51.250;-1.118;2023-12-28T06:45:02;99268.22;;;15.19
70668;BMP280;58242;51.250;-1.118;2023-12-28T06:47:27;99260.56;;;15.21
70668;BMP280;58242;51.250;-1.118;2023-12-28T06:49:53;99262.91;;;15.23
70668;BMP280;58242;51.250;-1.118;2023-12-28T06:52:19;99276.34;;;15.23
70668;BMP280;58242;51.250;-1.118;2023-12-28T06:54:44;99277.50;;;15.22
70668;BMP280;58242;51.250;-1.118;2023-12-28T06:57:09;99268.22;;;15.19
70668;BMP280;58242;51.250;-1.118;2023-12-28T06:59:35;99273.59;;;15.19
70668;BMP280;58242;51.250;-1.118;2023-12-28T07:02:00;99274.00;;;15.18
70668;BMP280;58242;51.250;-1.118;2023-12-28T07:04:25;99290.50;;;15.16
70668;BMP280;58242;51.250;-1.118;2023-12-28T07:06:54;99267.38;;;15.12
70668;BMP280;58242;51.250;-1.118;2023-12-28T07:09:20;99294.31;;;15.12
70668;BMP280;58242;51.250;-1.118;2023-12-28T07:11:45;99297.38;;;15.10
70668;BMP280;58242;51.250;-1.118;2023-12-28T07:14:10;99303.91;;;15.09
70668;BMP280;58242;51.250;-1.118;2023-12-28T07:16:36;99304.28;;;15.11
70668;BMP280;58242;51.250;-1.118;2023-12-28T07:19:01;99310.06;;;15.10
70668;BMP280;58242;51.250;-1.118;2023-12-28T07:21:26;99305.47;;;15.10
70668;BMP280;58242;51.250;-1.118;2023-12-28T07:23:52;99305.81;;;15.09
70668;BMP280;58242;51.250;-1.118;2023-12-28T07:26:17;99329.25;;;15.08
70668;BMP280;58242;51.250;-1.118;2023-12-28T07:28:43;99317.31;;;15.06
70668;BMP280;58242;51.250;-1.118;2023-12-28T07:31:10;99317.69;;;15.05
70668;BMP280;58242;51.250;-1.118;2023-12-28T07:33:35;99313.47;;;15.04
70668;BMP280;58242;51.250;-1.118;2023-12-28T07:36:01;99307.66;;;15.02
70668;BMP280;58242;51.250;-1.118;2023-12-28T07:38:28;99304.59;;;15.00
70668;BMP280;58242;51.250;-1.118;2023-12-28T07:40:54;99298.00;;;14.97
70668;BMP280;58242;51.250;-1.118;2023-12-28T07:43:19;99299.94;;;15.00
70668;BMP280;58242;51.250;-1.118;2023-12-28T07:45:45;99296.16;;;15.05
70668;BMP280;58242;51.250;-1.118;2023-12-28T07:48:10;99294.28;;;15.08
70668;BMP280;58242;51.250;-1.118;2023-12-28T07:50:35;99298.91;;;15.11
70668;BMP280;58242;51.250;-1.118;2023-12-28T07:53:01;99298.19;;;15.14
70668;BMP280;58242;51.250;-1.118;2023-12-28T07:55:26;99308.59;;;15.19
70668;BMP280;58242;51.250;-1.118;2023-12-28T07:57:51;99301.31;;;15.20
70668;BMP280;58242;51.250;-1.118;2023-12-28T08:00:17;99282.91;;;15.25
70668;BMP280;58242;51.250;-1.118;2023-12-28T08:02:42;99299.88;;;15.29
70668;BMP280;58242;51.250;-1.118;2023-12-28T08:05:08;99288.75;;;15.34
70668;BMP280;58242;51.250;-1.118;2023-12-28T08:07:34;99291.47;;;15.37
70668;BMP280;58242;51.250;-1.118;2023-12-28T08:10:00;99290.34;;;15.41
70668;BMP280;58242;51.250;-1.118;2023-12-28T08:12:25;99291.91;;;15.46
70668;BMP280;58242;51.250;-1.118;2023-12-28T08:14:53;99294.66;;;15.49
70668;BMP280;58242;51.250;-1.118;2023-12-28T08:17:19;99308.53;;;15.51
70668;BMP280;58242;51.250;-1.118;2023-12-28T08:19:44;99304.28;;;15.50
70668;BMP280;58242;51.250;-1.118;2023-12-28T08:22:09;99294.25;;;15.47
70668;BMP280;58242;51.250;-1.118;2023-12-28T08:24:35;99297.31;;;15.46
70668;BMP280;58242;51.250;-1.118;2023-12-28T08:27:01;99296.16;;;15.43
70668;BMP280;58242;51.250;-1.118;2023-12-28T08:29:28;99313.41;;;15.39
70668;BMP280;58242;51.250;-1.118;2023-12-28T08:31:53;99334.94;;;15.36
70668;BMP280;58242;51.250;-1.118;2023-12-28T08:34:18;99346.44;;;15.33
70668;BMP280;58242;51.250;-1.118;2023-12-28T08:36:44;99336.00;;;15.28
70668;BMP280;58242;51.250;-1.118;2023-12-28T08:39:09;99325.19;;;15.21
70668;BMP280;58242;51.250;-1.118;2023-12-28T08:41:35;99345.47;;;15.15
70668;BMP280;58242;51.250;-1.118;2023-12-28T08:44:00;99338.91;;;15.09
70668;BMP280;58242;51.250;-1.118;2023-12-28T08:46:26;99346.91;;;15.03
70668;BMP280;58242;51.250;-1.118;2023-12-28T08:48:51;99341.06;;;14.97
70668;BMP280;58242;51.250;-1.118;2023-12-28T08:51:17;99331.81;;;14.95
70668;BMP280;58242;51.250;-1.118;2023-12-28T08:53:42;99325.63;;;14.91
70668;BMP280;58242;51.250;-1.118;2023-12-28T08:56:19;99332.13;;;14.90
70668;BMP280;58242;51.250;-1.118;2023-12-28T08:58:45;99332.50;;;14.88
70668;BMP280;58242;51.250;-1.118;2023-12-28T09:01:19;99335.94;;;14.89
70668;BMP280;58242;51.250;-1.118;2023-12-28T09:03:50;99339.06;;;14.91
70668;BMP280;58242;51.250;-1.118;2023-12-28T09:06:16;99332.16;;;14.93
70668;BMP280;58242;51.250;-1.118;2023-12-28T09:08:42;99340.72;;;14.99
70668;BMP280;58242;51.250;-1.118;2023-12-28T09:11:10;99338.81;;;15.03
70668;BMP280;58242;51.250;-1.118;2023-12-28T09:13:36;99341.56;;;15.06
70668;BMP280;58242;51.250;-1.118;2023-12-28T09:16:01;99349.31;;;15.11
70668;BMP280;58242;51.250;-1.118;2023-12-28T09:18:27;99349.34;;;15.14
70668;BMP280;58242;51.250;-1.118;2023-12-28T09:20:52;99342.47;;;15.20
70668;BMP280;58242;51.250;-1.118;2023-12-28T09:23:17;99337.88;;;15.24
70668;BMP280;58242;51.250;-1.118;2023-12-28T09:25:43;99347.91;;;15.27
70668;BMP280;58242;51.250;-1.118;2023-12-28T09:28:08;99345.63;;;15.29
70668;BMP280;58242;51.250;-1.118;2023-12-28T09:30:33;99349.88;;;15.30
70668;BMP280;58242;51.250;-1.118;2023-12-28T09:32:59;99358.00;;;15.33
70668;BMP280;58242;51.250;-1.118;2023-12-28T09:35:24;99357.28;;;15.40
70668;BMP280;58242;51.250;-1.118;2023-12-28T09:37:50;99362.34;;;15.44
70668;BMP280;58242;51.250;-1.118;2023-12-28T09:40:15;99352.38;;;15.48
70668;BMP280;58242;51.250;-1.118;2023-12-28T09:45:32;99370.88;;;15.53
70668;BMP280;58242;51.250;-1.118;2023-12-28T09:47:58;99360.13;;;15.57
70668;BMP280;58242;51.250;-1.118;2023-12-28T09:50:24;99350.94;;;15.61
70668;BMP280;58242;51.250;-1.118;2023-12-28T09:52:52;99366.38;;;15.64
70668;BMP280;58242;51.250;-1.118;2023-12-28T09:55:18;99361.78;;;15.68
70668;BMP280;58242;51.250;-1.118;2023-12-28T09:57:44;99359.88;;;15.72
70668;BMP280;58242;51.250;-1.118;2023-12-28T10:00:12;99363.38;;;15.75
70668;BMP280;58242;51.250;-1.118;2023-12-28T10:02:39;99359.94;;;15.78
70668;BMP280;58242;51.250;-1.118;2023-12-28T10:05:06;99369.97;;;15.81
70668;BMP280;58242;51.250;-1.118;2023-12-28T10:07:32;99352.25;;;15.80
70668;BMP280;58242;51.250;-1.118;2023-12-28T10:09:57;99351.47;;;15.80
70668;BMP280;58242;51.250;-1.118;2023-12-28T10:12:22;99329.13;;;15.79
70668;BMP280;58242;51.250;-1.118;2023-12-28T10:14:50;99348.41;;;15.81
70668;BMP280;58242;51.250;-1.118;2023-12-28T10:17:15;99345.38;;;15.86
70668;BMP280;58242;51.250;-1.118;2023-12-28T10:19:41;99342.75;;;15.93
70668;BMP280;58242;51.250;-1.118;2023-12-28T10:22:06;99342.00;;;15.96
70668;BMP280;58242;51.250;-1.118;2023-12-28T10:24:32;99347.81;;;15.98
70668;BMP280;58242;51.250;-1.118;2023-12-28T10:26:57;99343.56;;;15.97
70668;BMP280;58242;51.250;-1.118;2023-12-28T10:29:25;99340.09;;;15.96
70668;BMP280;58242;51.250;-1.118;2023-12-28T10:31:51;99340.09;;;15.96
70668;BMP280;58242;51.250;-1.118;2023-12-28T10:34:16;99342.44;;;15.98
70668;BMP280;58242;51.250;-1.118;2023-12-28T10:36:42;99347.03;;;15.97
70668;BMP280;58242;51.250;-1.118;2023-12-28T10:39:09;99375.13;;;15.96
70668;BMP280;58242;51.250;-1.118;2023-12-28T10:41:36;99364.66;;;15.91
70668;BMP280;58242;51.250;-1.118;2023-12-28T10:44:04;99343.44;;;15.87
70668;BMP280;58242;51.250;-1.118;2023-12-28T10:46:34;99351.09;;;15.78
70668;BMP280;58242;51.250;-1.118;2023-12-28T10:49:11;99356.41;;;15.68
70668;BMP280;58242;51.250;-1.118;2023-12-28T10:51:40;99354.41;;;15.61
70668;BMP280;58242;51.250;-1.118;2023-12-28T10:56:47;99351.63;;;15.51
70668;BMP280;58242;51.250;-1.118;2023-12-28T11:01:54;99313.50;;;15.49
70668;BMP280;58242;51.250;-1.118;2023-12-28T11:04:37;99304.28;;;15.50
70668;BMP280;58242;51.250;-1.118;2023-12-28T11:07:05;99315.81;;;15.51
70668;BMP280;58242;51.250;-1.118;2023-12-28T11:09:31;99310.88;;;15.53
70668;BMP280;58242;51.250;-1.118;2023-12-28T11:11:57;99307.78;;;15.54
70668;BMP280;58242;51.250;-1.118;2023-12-28T11:14:27;99329.31;;;15.54
70668;BMP280;58242;51.250;-1.118;2023-12-28T11:16:53;99321.63;;;15.53
70668;BMP280;58242;51.250;-1.118;2023-12-28T11:19:20;99311.22;;;15.51
70668;BMP280;58242;51.250;-1.118;2023-12-28T11:21:48;99318.50;;;15.47
70668;BMP280;58242;51.250;-1.118;2023-12-28T11:24:15;99318.81;;;15.42
70668;BMP280;58242;51.250;-1.118;2023-12-28T11:26:42;99330.72;;;15.38
70668;BMP280;58242;51.250;-1.118;2023-12-28T11:29:07;99330.31;;;15.36
70668;BMP280;58242;51.250;-1.118;2023-12-28T11:31:34;99325.69;;;15.33
70668;BMP280;58242;51.250;-1.118;2023-12-28T11:34:04;99324.91;;;15.33
70668;BMP280;58242;51.250;-1.118;2023-12-28T11:36:34;99309.53;;;15.33
70668;BMP280;58242;51.250;-1.118;2023-12-28T11:39:05;99315.28;;;15.32
70668;BMP280;58242;51.250;-1.118;2023-12-28T11:41:32;99293.72;;;15.32
70668;BMP280;58242;51.250;-1.118;2023-12-28T11:44:04;99296.84;;;15.34
70668;BMP280;58242;51.250;-1.118;2023-12-28T11:46:34;99276.81;;;15.35
70668;BMP280;58242;51.250;-1.118;2023-12-28T11:49:04;99279.94;;;15.37
70668;BMP280;58242;51.250;-1.118;2023-12-28T11:51:29;99290.34;;;15.41
70668;BMP280;58242;51.250;-1.118;2023-12-28T11:53:56;99286.50;;;15.42
70668;BMP280;58242;51.250;-1.118;2023-12-28T11:56:21;99276.53;;;15.43
70668;BMP280;58242;51.250;-1.118;2023-12-28T11:58:46;99271.13;;;15.43
70668;BMP280;58242;51.250;-1.118;2023-12-28T12:01:13;99271.88;;;15.40
70668;BMP280;58242;51.250;-1.118;2023-12-28T12:03:38;99283.00;;;15.39
70668;BMP280;58242;51.250;-1.118;2023-12-28T12:06:04;99283.00;;;15.39
70668;BMP280;58242;51.250;-1.118;2023-12-28T12:08:29;99273.78;;;15.40
70668;BMP280;58242;51.250;-1.118;2023-12-28T12:11:21;99270.31;;;15.36
70668;BMP280;58242;51.250;-1.118;2023-12-28T12:13:50;99265.69;;;15.36
70668;BMP280;58242;51.250;-1.118;2023-12-28T12:16:16;99269.19;;;15.40
70668;BMP280;58242;51.250;-1.118;2023-12-28T12:18:41;99261.13;;;15.43
70668;BMP280;58242;51.250;-1.118;2023-12-28T12:21:07;99263.06;;;15.46
70668;BMP280;58242;51.250;-1.118;2023-12-28T12:23:32;99246.56;;;15.48
70668;BMP280;58242;51.250;-1.118;2023-12-28T12:25:58;99267.34;;;15.51
70668;BMP280;58242;51.250;-1.118;2023-12-28T12:28:23;99254.31;;;15.56
70668;BMP280;58242;51.250;-1.118;2023-12-28T12:30:53;99228.94;;;15.60
70668;BMP280;58242;51.250;-1.118;2023-12-28T12:33:20;99231.69;;;15.64
70668;BMP280;58242;51.250;-1.118;2023-12-28T12:35:46;99247.47;;;15.69
70668;BMP280;58242;51.250;-1.118;2023-12-28T12:38:11;99240.94;;;15.73
70668;BMP280;58242;51.250;-1.118;2023-12-28T12:40:36;99239.84;;;15.77
70668;BMP280;58242;51.250;-1.118;2023-12-28T12:43:02;99237.94;;;15.81
70668;BMP280;58242;51.250;-1.118;2023-12-28T12:45:28;99219.88;;;15.85
70668;BMP280;58242;51.250;-1.118;2023-12-28T12:47:53;99231.44;;;15.89
70668;BMP280;58242;51.250;-1.118;2023-12-28T12:50:19;99219.91;;;15.92
70668;BMP280;58242;51.250;-1.118;2023-12-28T12:52:44;99225.75;;;15.97
70668;BMP280;58242;51.250;-1.118;2023-12-28T12:55:13;99213.06;;;16.01
70668;BMP280;58242;51.250;-1.118;2023-12-28T12:57:39;99216.16;;;16.07
70668;BMP280;58242;51.250;-1.118;2023-12-28T13:00:06;99219.28;;;16.12
70668;BMP280;58242;51.250;-1.118;2023-12-28T13:02:34;99206.56;;;16.12
70668;BMP280;58242;51.250;-1.118;2023-12-28T13:05:03;99202.69;;;16.13
70668;BMP280;58242;51.250;-1.118;2023-12-28T13:07:30;99191.53;;;16.15
70668;BMP280;58242;51.250;-1.118;2023-12-28T13:09:56;99213.13;;;16.15
70668;BMP280;58242;51.250;-1.118;2023-12-28T13:12:21;99208.50;;;16.15
70668;BMP280;58242;51.250;-1.118;2023-12-28T13:14:46;99202.75;;;16.17
70668;BMP280;58242;51.250;-1.118;2023-12-28T13:17:12;99205.81;;;16.19
70668;BMP280;58242;51.250;-1.118;2023-12-28T13:19:37;99191.56;;;16.22
70668;BMP280;58242;51.250;-1.118;2023-12-28T13:22:03;99204.69;;;16.23
70668;BMP280;58242;51.250;-1.118;2023-12-28T13:24:30;99211.22;;;16.22
70668;BMP280;58242;51.250;-1.118;2023-12-28T13:26:55;99196.19;;;16.21
70668;BMP280;58242;51.250;-1.118;2023-12-28T13:29:22;99181.56;;;16.22
70668;BMP280;58242;51.250;-1.118;2023-12-28T13:31:47;99173.88;;;16.24
70668;BMP280;58242;51.250;-1.118;2023-12-28T13:34:16;99189.66;;;16.26
70668;BMP280;58242;51.250;-1.118;2023-12-28T13:36:41;99203.91;;;16.26
70668;BMP280;58242;51.250;-1.118;2023-12-28T13:39:06;99200.84;;;16.24
70668;BMP280;58242;51.250;-1.118;2023-12-28T13:41:34;99209.28;;;16.23
70668;BMP280;58242;51.250;-1.118;2023-12-28T13:43:59;99210.84;;;16.20
70668;BMP280;58242;51.250;-1.118;2023-12-28T13:46:29;99195.41;;;16.17
70668;BMP280;58242;51.250;-1.118;2023-12-28T13:48:54;99205.44;;;16.17
70668;BMP280;58242;51.250;-1.118;2023-12-28T13:51:19;99194.66;;;16.17
70668;BMP280;58242;51.250;-1.118;2023-12-28T13:53:45;99184.59;;;16.17
70668;BMP280;58242;51.250;-1.118;2023-12-28T13:56:10;99195.41;;;16.17
70668;BMP280;58242;51.250;-1.118;2023-12-28T13:58:35;99195.81;;;16.19
70668;BMP280;58242;51.250;-1.118;2023-12-28T14:01:01;99183.47;;;16.18
70668;BMP280;58242;51.250;-1.118;2023-12-28T14:03:27;99186.16;;;16.18